Time;durP1;ratioP1;P1;durP2;ratioP2;P2;SDS_P1;SDS_P2;PMS_P1;PMS_P2;Temp;Humidity;BMP_temperature;BMP_pressure;BME280_temperature;BME280_humidity;BME280_pressure;Samples;Min_cycle;Max_cycle;Signal;HPM_P1;HPM_P2
2022/11/30 00:03:28;;;;;;;51.95;20.85;;;6.30;99.90;;;;;;6062153;23;20061;-96
2022/11/30 00:05:55;;;;;;;49.47;21.83;;;6.40;99.90;;;;;;6032838;23;20027;-96
2022/11/30 00:08:21;;;;;;;53.33;22.40;;;6.30;99.90;;;;;;6033538;23;20571;-96
2022/11/30 00:10:47;;;;;;;46.85;20.90;;;6.40;99.90;;;;;;6033258;23;20019;-95
2022/11/30 00:16:35;;;;;;;52.28;21.90;;;6.30;99.90;;;;;;6080261;23;20022;-96
2022/11/30 00:30:40;;;;;;;43.97;20.15;;;6.40;99.90;;;;;;6040696;23;20375;-96
2022/11/30 00:33:07;;;;;;;43.00;20.60;;;6.30;99.90;;;;;;6038878;23;20103;-96
2022/11/30 00:35:36;;;;;;;47.05;20.80;;;6.30;99.90;;;;;;6062425;23;20034;-96
2022/11/30 00:38:42;;;;;;;48.35;20.92;;;6.30;99.90;;;;;;6014696;23;20019;-95
2022/11/30 00:44:40;;;;;;;52.05;19.75;;;5.50;99.90;;;;;;6062120;23;20034;-96
2022/11/30 00:47:25;;;;;;;47.28;21.10;;;6.20;99.90;;;;;;6014690;23;20023;-96
2022/11/30 00:49:51;;;;;;;46.38;21.08;;;6.30;99.90;;;;;;6066520;23;20157;-96
2022/11/30 00:59:40;;;;;;;41.33;20.10;;;6.30;99.90;;;;;;6070184;23;20073;-96
2022/11/30 01:08:36;;;;;;;46.97;20.58;;;5.70;99.90;;;;;;6068084;23;20049;-96
2022/11/30 01:11:23;;;;;;;43.80;19.55;;;6.30;99.90;;;;;;6045659;23;20045;-96
2022/11/30 01:13:54;;;;;;;42.55;20.38;;;6.30;99.90;;;;;;6046017;23;20029;-95
2022/11/30 01:16:24;;;;;;;41.80;21.02;;;5.60;99.90;;;;;;6020180;23;20022;-96
2022/11/30 01:18:50;;;;;;;41.88;19.90;;;6.30;99.90;;;;;;6067499;23;20019;-96
2022/11/30 01:21:47;;;;;;;39.53;19.27;;;6.30;99.90;;;;;;6067788;23;20023;-96
2022/11/30 01:24:34;;;;;;;37.58;18.48;;;6.40;99.90;;;;;;6044038;23;20042;-96
2022/11/30 01:27:01;;;;;;;36.85;19.30;;;6.70;99.90;;;;;;6043302;23;20022;-96
2022/11/30 01:29:29;;;;;;;37.00;18.75;;;6.20;99.90;;;;;;6068707;23;20023;-96
2022/11/30 01:35:36;;;;;;;43.22;21.17;;;6.30;99.90;;;;;;6068409;23;20013;-96
2022/11/30 01:38:22;;;;;;;41.92;20.55;;;6.20;99.90;;;;;;6043095;23;20380;-96
2022/11/30 01:40:53;;;;;;;45.17;20.35;;;6.20;99.90;;;;;;6044756;23;20015;-96
2022/11/30 01:47:40;;;;;;;46.20;22.05;;;6.30;99.90;;;;;;6067161;23;20031;-95
2022/11/30 01:50:58;;;;;;;47.35;20.48;;;6.20;99.90;;;;;;6043073;23;20442;-96
2022/11/30 01:53:27;;;;;;;45.08;20.83;;;6.40;99.90;;;;;;6043550;23;20090;-96
2022/11/30 02:03:28;;;;;;;43.63;20.60;;;6.30;99.90;;;;;;6066671;23;20025;-96
2022/11/30 02:05:58;;;;;;;48.30;20.92;;;;;;;;;;6041092;23;20029;-96
2022/11/30 02:09:02;;;;;;;49.13;22.73;;;6.20;99.90;;;;;;6038899;23;20126;-96
2022/11/30 02:11:48;;;;;;;42.97;20.25;;;5.70;99.90;;;;;;6043583;23;20019;-96
2022/11/30 02:14:53;;;;;;;43.80;19.65;;;6.20;99.90;;;;;;6045957;23;20015;-96
2022/11/30 02:17:58;;;;;;;45.33;19.73;;;6.20;99.90;;;;;;6068899;23;20116;-95
2022/11/30 02:20:42;;;;;;;46.15;21.80;;;6.10;99.90;;;;;;6044342;23;20460;-96
2022/11/30 02:23:39;;;;;;;47.20;22.55;;;6.20;99.90;;;;;;6045129;23;20015;-96
2022/11/30 02:26:26;;;;;;;42.03;20.92;;;6.20;99.90;;;;;;6046217;23;20025;-96
2022/11/30 02:29:21;;;;;;;38.70;19.83;;;6.20;99.90;;;;;;6044995;23;20069;-96
2022/11/30 02:32:01;;;;;;;39.05;19.65;;;6.10;99.90;;;;;;6063214;23;20093;-95
2022/11/30 02:34:30;;;;;;;47.80;20.92;;;6.10;99.90;;;;;;6064664;23;20015;-95
2022/11/30 02:36:57;;;;;;;44.47;21.27;;;6.10;99.90;;;;;;6062479;23;20085;-96
2022/11/30 02:39:43;;;;;;;41.05;19.20;;;6.20;99.90;;;;;;6091166;23;20444;-96
2022/11/30 02:42:30;;;;;;;45.95;22.02;;;6.20;99.90;;;;;;6044238;23;20019;-95
2022/11/30 02:45:28;;;;;;;41.67;20.90;;;6.20;99.90;;;;;;6044589;23;20426;-96
2022/11/30 02:48:07;;;;;;;45.03;21.40;;;6.10;99.90;;;;;;6042097;23;20022;-96
2022/11/30 02:50:44;;;;;;;43.13;20.73;;;6.20;99.90;;;;;;5993094;23;20023;-96
2022/11/30 02:56:35;;;;;;;41.65;20.58;;;6.10;99.90;;;;;;6063564;23;20027;-96
2022/11/30 02:59:21;;;;;;;35.63;19.15;;;6.10;99.90;;;;;;6028266;23;20019;-96
2022/11/30 03:02:07;;;;;;;40.80;20.15;;;6.10;99.90;;;;;;6056641;23;20011;-96
2022/11/30 03:04:54;;;;;;;46.97;21.63;;;6.20;99.90;;;;;;6011622;23;20075;-96
2022/11/30 03:07:20;;;;;;;40.30;19.58;;;6.20;99.90;;;;;;6029096;23;20361;-96
2022/11/30 03:21:28;;;;;;;37.40;20.52;;;6.10;99.90;;;;;;6098630;23;20584;-96
2022/11/30 03:23:58;;;;;;;33.10;16.67;;;6.20;99.90;;;;;;6049065;23;20023;-96
2022/11/30 03:26:26;;;;;;;36.53;18.60;;;5.60;99.90;;;;;;6048893;23;20033;-96
2022/11/30 03:29:03;;;;;;;37.90;18.67;;;6.10;99.90;;;;;;6025745;23;20018;-96
2022/11/30 03:31:30;;;;;;;37.20;18.27;;;6.20;99.90;;;;;;6048321;23;20038;-96
2022/11/30 03:41:16;;;;;;;42.10;19.08;;;6.10;99.90;;;;;;6122071;23;20030;-96
2022/11/30 03:47:45;;;;;;;36.35;19.23;;;6.20;99.90;;;;;;6096728;23;20019;-96
2022/11/30 03:54:29;;;;;;;38.53;19.45;;;6.10;99.90;;;;;;6097939;23;20021;-95
2022/11/30 04:00:57;;;;;;;42.35;19.60;;;6.10;99.90;;;;;;6098059;23;20025;-96
2022/11/30 04:07:04;;;;;;;37.35;19.38;;;6.10;99.90;;;;;;6123400;23;20097;-96
2022/11/30 04:21:03;;;;;;;43.17;20.48;;;6.20;99.90;;;;;;6127364;23;20017;-96
2022/11/30 04:23:49;;;;;;;42.17;19.30;;;6.20;99.90;;;;;;6076950;23;20014;-96
2022/11/30 04:26:34;;;;;;;51.70;19.17;;;6.20;99.90;;;;;;6101297;23;20084;-96
2022/11/30 04:33:20;;;;;;;45.83;18.77;;;6.20;99.90;;;;;;6126690;23;20021;-96
2022/11/30 04:35:50;;;;;;;52.72;19.30;;;6.10;99.90;;;;;;6095779;23;20026;-95
2022/11/30 04:41:51;;;;;;;51.50;18.63;;;6.10;99.90;;;;;;6125629;23;20079;-95
2022/11/30 04:44:36;;;;;;;45.13;17.58;;;6.00;99.90;;;;;;6099956;23;20022;-96
2022/11/30 04:47:22;;;;;;;48.22;19.75;;;6.00;99.90;;;;;;6101230;23;20018;-95
2022/11/30 04:57:20;;;;;;;47.17;18.38;;;6.10;99.90;;;;;;6126172;23;20041;-93
2022/11/30 05:03:29;;;;;;;44.90;19.33;;;6.10;99.90;;;;;;6123016;23;20026;-96
2022/11/30 05:05:55;;;;;;;40.38;17.70;;;6.00;99.90;;;;;;6071207;23;20022;-95
2022/11/30 05:08:21;;;;;;;48.83;18.98;;;6.00;99.90;;;;;;6090654;23;20025;-95
2022/11/30 05:11:42;;;;;;;45.83;17.85;;;6.00;99.90;;;;;;6095511;23;20023;-95
2022/11/30 05:18:52;;;;;;;42.28;16.70;;;5.90;99.90;;;;;;6097058;23;20025;-96
2022/11/30 05:29:35;;;;;;;43.97;18.15;;;5.90;99.90;;;;;;6096748;23;20069;-94
2022/11/30 05:32:03;;;;;;;43.05;16.75;;;5.90;99.90;;;;;;6095506;23;20026;-96
2022/11/30 05:34:49;;;;;;;43.50;17.30;;;5.80;99.90;;;;;;6119450;23;20018;-95
2022/11/30 05:37:33;;;;;;;45.47;17.38;;;5.80;99.90;;;;;;6094863;23;20018;-94
2022/11/30 05:47:17;;;;;;;49.17;18.45;;;5.70;99.90;;;;;;6123081;23;20034;-96
2022/11/30 05:49:44;;;;;;;42.47;18.63;;;5.70;99.90;;;;;;6073548;23;20010;-96
2022/11/30 05:55:35;;;;;;;46.00;17.92;;;5.70;99.90;;;;;;6123415;23;20029;-96
2022/11/30 05:58:03;;;;;;;37.45;17.40;;;5.60;99.90;;;;;;6108393;23;20021;-96
2022/11/30 06:00:32;;;;;;;46.30;18.20;;;5.60;99.90;;;;;;6113121;23;20087;-96
2022/11/30 06:03:36;;;;;;;40.08;18.33;;;5.60;99.90;;;;;;6093740;23;20026;-96
2022/11/30 06:06:42;;;;;;;41.00;18.30;;;5.60;99.90;;;;;;6095393;23;20020;-96
2022/11/30 06:09:09;;;;;;;45.83;17.75;;;5.60;99.90;;;;;;6107517;23;20022;-96
2022/11/30 06:16:00;;;;;;;37.45;16.23;;;6.20;99.90;;;;;;6062892;23;20046;-96
2022/11/30 06:19:08;;;;;;;37.75;16.27;;;4.80;99.90;;;;;;6008870;23;20029;-96
2022/11/30 06:21:37;;;;;;;29.58;14.73;;;5.80;99.90;;;;;;6073049;23;20015;-96
2022/11/30 06:24:41;;;;;;;29.45;14.57;;;5.70;99.90;;;;;;6027111;23;20033;-96
2022/11/30 06:27:18;;;;;;;30.10;14.40;;;6.00;99.90;;;;;;6053118;23;20023;-96
2022/11/30 06:30:25;;;;;;;31.60;14.77;;;5.00;99.90;;;;;;6050302;23;20019;-96
2022/11/30 06:32:55;;;;;;;28.23;14.30;;;5.90;99.90;;;;;;6049664;23;20034;-96
2022/11/30 06:36:10;;;;;;;32.80;14.05;;;5.70;99.90;;;;;;6002363;23;20023;-96
2022/11/30 06:42:58;;;;;;;;;;;;;;;;;;;;;
2022/11/30 06:45:26;;;;;;;27.90;14.02;;;5.40;99.90;;;;;;6054687;23;20022;-96
2022/11/30 08:56:40;;;;;;;28.60;15.30;;;5.90;99.90;;;;;;6082326;23;20035;-96
2022/11/30 11:03:18;;;;;;;;;;;;;;;;;;;;;
2022/11/30 12:51:09;;;;;;;41.05;21.27;;;6.30;99.90;;;;;;6066774;23;20022;-96
2022/11/30 13:27:15;;;;;;;;;;;;;;;;;;;;;
2022/11/30 14:28:16;;;;;;;;;;;;;;;;;;;;;
2022/11/30 14:38:53;;;;;;;;;;;;;;;;;;;;;
2022/11/30 14:45:28;;;;;;;;;;;;;;;;;;;;;
2022/11/30 14:48:44;;;;;;;;;;;;;;;;;;;;;
2022/11/30 14:52:17;;;;;;;;;;;;;;;;;;;;;
2022/11/30 15:02:15;;;;;;;;;;;;;;;;;;;;;
2022/11/30 15:05:47;;;;;;;;;;;;;;;;;;;;;
2022/11/30 15:08:43;;;;;;;;;;;;;;;;;;;;;
2022/11/30 15:15:26;;;;;;;;;;;;;;;;;;;;;
2022/11/30 15:18:40;;;;;;;;;;;;;;;;;;;;;
2022/11/30 15:21:19;;;;;;;43.42;21.50;;;6.00;99.90;;;;;;6087683;23;20037;-94
2022/11/30 15:24:21;;;;;;;;;;;;;;;;;;;;;
2022/11/30 15:27:22;;;;;;;;;;;;;;;;;;;;;
2022/11/30 15:30:12;;;;;;;45.53;22.58;;;6.00;99.90;;;;;;6089648;23;20027;-95
2022/11/30 15:32:56;;;;;;;;;;;;;;;;;;;;;
2022/11/30 15:35:42;;;;;;;;;;;;;;;;;;;;;
2022/11/30 15:38:26;;;;;;;50.22;23.08;;;6.00;99.90;;;;;;6040836;23;20030;-93
2022/11/30 15:48:59;;;;;;;;;;;;;;;;;;;;;
2022/11/30 16:03:12;;;;;;;;;;;;;;;;;;;;;
2022/11/30 16:51:43;;;;;;;;;;;;;;;;;;;;;
2022/11/30 17:19:21;;;;;;;52.08;22.40;;;5.90;99.90;;;;;;5659042;22;15134649;-95
2022/11/30 17:32:39;;;;;;;52.23;21.90;;;5.50;99.90;;;;;;6252718;23;20019;-95
2022/11/30 17:35:07;;;;;;;51.13;22.77;;;5.90;99.90;;;;;;6225238;22;20407;-95
2022/11/30 17:52:27;;;;;;;46.35;22.40;;;5.80;99.90;;;;;;6270704;22;20085;-94
2022/11/30 17:56:12;;;;;;;;;;;;;;;;;;;;;
2022/11/30 17:59:18;;;;;;;49.28;23.27;;;5.10;99.90;;;;;;6277781;22;20019;-96
2022/11/30 18:01:52;;;;;;;52.40;22.77;;;5.00;99.90;;;;;;6261040;22;20012;-95
2022/11/30 18:04:19;;;;;;;53.70;23.50;;;5.00;99.90;;;;;;6230222;22;20027;-95
2022/11/30 18:07:25;;;;;;;53.75;22.73;;;5.90;99.90;;;;;;6284070;22;20007;-95
2022/11/30 18:10:31;;;;;;;54.22;23.83;;;5.90;99.90;;;;;;6285437;22;20007;-92
2022/11/30 18:17:10;;;;;;;;;;;;;;;;;;;;;
2022/11/30 18:19:36;;;;;;;49.17;22.90;;;5.80;99.90;;;;;;6277253;22;20012;-94
2022/11/30 18:22:23;;;;;;;52.78;22.65;;;5.80;99.90;;;;;;6249504;22;20027;-93
2022/11/30 18:24:55;;;;;;;49.28;22.90;;;5.80;99.90;;;;;;6226160;22;20480;-94
2022/11/30 18:27:25;;;;;;;48.17;22.10;;;5.80;99.90;;;;;;6250047;22;20016;-95
2022/11/30 18:30:11;;;;;;;54.47;23.70;;;5.80;99.90;;;;;;6224834;22;20333;-93
2022/11/30 18:33:00;;;;;;;50.25;22.80;;;5.80;99.90;;;;;;6250044;22;20062;-93
2022/11/30 18:35:28;;;;;;;55.95;24.05;;;5.70;99.90;;;;;;6246051;22;20015;-93
2022/11/30 18:38:15;;;;;;;54.47;24.05;;;5.80;99.90;;;;;;6249291;22;20055;-94
2022/11/30 18:40:45;;;;;;;52.45;24.30;;;5.80;99.90;;;;;;6248422;22;20403;-93
2022/11/30 18:43:13;;;;;;;51.00;23.58;;;5.80;99.90;;;;;;6224368;22;20011;-93
2022/11/30 18:45:54;;;;;;;;;;;;;;;;;;;;;
2022/11/30 18:49:00;;;;;;;52.38;24.70;;;5.80;99.90;;;;;;6273936;22;20027;-93
2022/11/30 18:51:28;;;;;;;53.65;25.67;;;5.80;99.90;;;;;;6248945;22;20474;-93
2022/11/30 18:54:03;;;;;;;55.08;24.50;;;5.80;99.90;;;;;;6249684;22;20078;-94
2022/11/30 18:56:40;;;;;;;49.30;23.27;;;5.80;99.90;;;;;;6248934;22;20102;-93
2022/11/30 18:59:29;;;;;;;51.90;24.80;;;5.70;99.90;;;;;;6250015;22;20693;-94
2022/11/30 19:02:20;;;;;;;50.13;23.55;;;5.60;99.90;;;;;;6249050;22;20016;-94
2022/11/30 19:05:18;;;;;;;;;;;;;;;;;;;;;
2022/11/30 19:07:45;;;;;;;49.42;23.30;;;5.80;99.90;;;;;;6274774;22;20027;-94
2022/11/30 19:10:13;;;;;;;57.75;24.08;;;5.80;99.90;;;;;;6249771;22;20016;-95
2022/11/30 19:13:02;;;;;;;55.95;25.90;;;5.80;99.90;;;;;;6248789;22;20059;-94
2022/11/30 19:19:21;;;;;;;57.33;25.38;;;5.80;99.90;;;;;;6274997;22;20073;-95
2022/11/30 19:21:57;;;;;;;;;;;;;;;;;;;;;
2022/11/30 19:25:16;;;;;;;;;;;;;;;;;;;;;
2022/11/30 19:28:36;;;;;;;;;;;;;;;;;;;;;
2022/11/30 19:31:44;;;;;;;;;;;;;;;;;;;;;
2022/11/30 19:34:47;;;;;;;;;;;;;;;;;;;;;
2022/11/30 19:37:49;;;;;;;;;;;;;;;;;;;;;
2022/11/30 19:41:11;;;;;;;;;;;;;;;;;;;;;
2022/11/30 19:44:16;;;;;;;52.53;24.27;;;5.80;99.90;;;;;;6253421;22;20026;-93
2022/11/30 19:50:25;;;;;;;;;;;;;;;;;;;;;
2022/11/30 19:53:47;;;;;;;;;;;;;;;;;;;;;
2022/11/30 19:57:12;;;;;;;;;;;;;;;;;;;;;
2022/11/30 20:03:42;;;;;;;;;;;;;;;;;;;;;
2022/11/30 20:07:20;;;;;;;;;;;;;;;;;;;;;
2022/11/30 20:10:47;;;;;;;;;;;;;;;;;;;;;
2022/11/30 20:14:07;;;;;;;;;;;;;;;;;;;;;
2022/11/30 20:17:48;;;;;;;;;;;;;;;;;;;;;
2022/11/30 20:21:06;;;;;;;;;;;;;;;;;;;;;
2022/11/30 20:24:30;;;;;;;;;;;;;;;;;;;;;
2022/11/30 20:27:50;;;;;;;;;;;;;;;;;;;;;
2022/11/30 20:34:40;;;;;;;;;;;;;;;;;;;;;
2022/11/30 20:41:32;;;;;;;;;;;;;;;;;;;;;
2022/11/30 20:44:28;;;;;;;63.63;25.95;;;5.80;99.90;;;;;;6207182;23;20020;-95
2022/11/30 20:54:35;;;;;;;;;;;;;;;;;;;;;
2022/11/30 20:57:50;;;;;;;64.75;25.95;;;5.80;99.90;;;;;;6221219;22;20034;-94
2022/11/30 21:04:26;;;;;;;62.17;24.95;;;5.70;99.90;;;;;;6250213;23;20027;-94
2022/11/30 21:21:39;;;;;;;63.25;25.42;;;5.70;99.90;;;;;;6245506;23;20022;-95
2022/11/30 21:28:07;;;;;;;59.25;25.40;;;5.80;99.90;;;;;;6245928;23;20026;-95
2022/11/30 21:30:40;;;;;;;59.72;24.73;;;5.70;99.90;;;;;;6193931;23;20729;-96
2022/11/30 21:40:39;;;;;;;58.28;25.45;;;5.20;99.90;;;;;;6218818;23;20026;-96
2022/11/30 21:43:24;;;;;;;58.80;25.05;;;5.70;99.90;;;;;;6193988;23;20016;-95
2022/11/30 21:46:12;;;;;;;60.85;26.20;;;5.70;99.90;;;;;;6193954;23;20042;-96
2022/11/30 21:49:08;;;;;;;67.93;27.60;;;5.70;99.90;;;;;;6202051;22;20539;-95
2022/11/30 21:52:11;;;;;;;62.47;26.52;;;4.90;99.90;;;;;;6193314;23;20027;-95
2022/11/30 21:54:57;;;;;;;65.60;27.83;;;5.70;99.90;;;;;;6194525;23;20589;-95
2022/11/30 21:57:56;;;;;;;59.70;26.23;;;5.70;99.90;;;;;;6168847;23;20027;-95
2022/11/30 22:04:24;;;;;;;60.95;26.38;;;5.70;99.90;;;;;;6220337;23;20021;-96
2022/11/30 22:06:50;;;;;;;68.88;27.33;;;5.70;99.90;;;;;;6195608;23;20427;-96
2022/11/30 22:09:56;;;;;;;54.53;25.45;;;5.70;99.90;;;;;;6195678;23;20026;-95
2022/11/30 22:16:16;;;;;;;60.63;27.00;;;5.60;99.90;;;;;;6219811;23;20066;-96
2022/11/30 22:18:46;;;;;;;60.50;26.23;;;5.60;99.90;;;;;;6167671;23;20095;-96
2022/11/30 22:21:20;;;;;;;62.13;25.70;;;5.00;99.90;;;;;;6190811;23;20098;-96
2022/11/30 22:23:51;;;;;;;65.50;25.55;;;5.70;99.90;;;;;;6190204;23;20078;-95
2022/11/30 22:26:17;;;;;;;69.13;26.52;;;5.70;99.90;;;;;;6165782;23;20021;-96
2022/11/30 22:29:21;;;;;;;62.10;26.02;;;5.60;99.90;;;;;;6196141;23;20027;-96
2022/11/30 22:31:49;;;;;;;60.50;27.65;;;5.60;99.90;;;;;;6195024;23;20027;-95
2022/11/30 22:34:57;;;;;;;64.72;26.98;;;5.60;99.90;;;;;;6196214;23;20016;-96
2022/11/30 22:41:14;;;;;;;73.70;28.10;;;4.90;99.90;;;;;;6247596;23;20030;-96
2022/11/30 22:51:23;;;;;;;67.15;27.02;;;5.60;99.90;;;;;;6274323;22;20022;-96
2022/11/30 22:57:40;;;;;;;61.60;26.90;;;5.10;99.90;;;;;;6277896;22;20019;-96
2022/11/30 23:00:14;;;;;;;65.68;28.20;;;5.60;99.90;;;;;;6250770;22;20016;-95
2022/11/30 23:02:43;;;;;;;67.75;27.38;;;5.50;99.90;;;;;;6223255;22;20027;-96
2022/11/30 23:05:31;;;;;;;61.83;28.50;;;5.60;99.90;;;;;;6250760;22;20023;-96
2022/11/30 23:11:54;;;;;;;69.72;26.90;;;5.50;99.90;;;;;;6277165;22;20022;-95
2022/11/30 23:28:16;;;;;;;61.22;26.23;;;5.40;99.90;;;;;;6270810;22;20031;-95
2022/11/30 23:31:12;;;;;;;66.65;27.48;;;5.40;99.90;;;;;;6194779;23;20020;-96
2022/11/30 23:33:39;;;;;;;66.28;26.80;;;5.40;99.90;;;;;;6209953;23;20027;-96
2022/11/30 23:40:09;;;;;;;64.20;24.90;;;5.40;99.90;;;;;;6273013;22;20055;-95
2022/11/30 23:46:29;;;;;;;65.78;26.77;;;5.30;99.90;;;;;;6221407;23;20020;-96
2022/11/30 23:56:22;;;;;;;66.35;26.45;;;5.40;99.90;;;;;;6216407;23;20016;-95
